sensor_id;sensor_type;location;lat;lon;timestamp;P1;durP1;ratioP1;P2;durP2;ratioP2
70014;SDS011;57358;51.094;6.760;2024-03-07T00:03:43;32;;;71.7;;
70014;SDS011;57358;51.094;6.760;2024-03-07T00:08:42;33.5;;;75.6;;
70014;SDS011;57358;51.094;6.760;2024-03-07T00:13:41;33.7;;;79.8;;
70014;SDS011;57358;51.094;6.760;2024-03-07T00:18:40;33.4;;;77.6;;
70014;SDS011;57358;51.094;6.760;2024-03-07T00:23:40;33.7;;;76.5;;
70014;SDS011;57358;51.094;6.760;2024-03-07T00:28:39;34;;;84.9;;
70014;SDS011;57358;51.094;6.760;2024-03-07T00:33:38;35.1;;;87.7;;
70014;SDS011;57358;51.094;6.760;2024-03-07T00:38:37;35.6;;;86.4;;
70014;SDS011;57358;51.094;6.760;2024-03-07T00:43:36;34.1;;;80.4;;
70014;SDS011;57358;51.094;6.760;2024-03-07T00:48:36;34.2;;;85.3;;
70014;SDS011;57358;51.094;6.760;2024-03-07T00:53:35;33.2;;;82.6;;
70014;SDS011;57358;51.094;6.760;2024-03-07T00:58:34;36.3;;;96.1;;
70014;SDS011;57358;51.094;6.760;2024-03-07T01:03:33;33.3;;;84.8;;
70014;SDS011;57358;51.094;6.760;2024-03-07T01:08:32;33.6;;;85.2;;
70014;SDS011;57358;51.094;6.760;2024-03-07T01:13:32;35.6;;;89.2;;
70014;SDS011;57358;51.094;6.760;2024-03-07T01:18:31;34.7;;;90.4;;
70014;SDS011;57358;51.094;6.760;2024-03-07T01:23:30;34.4;;;86.9;;
70014;SDS011;57358;51.094;6.760;2024-03-07T01:28:29;33.5;;;81.6;;
70014;SDS011;57358;51.094;6.760;2024-03-07T01:33:28;31.6;;;75.7;;
70014;SDS011;57358;51.094;6.760;2024-03-07T01:38:28;31.7;;;81.3;;
70014;SDS011;57358;51.094;6.760;2024-03-07T01:43:27;35.1;;;90.2;;
70014;SDS011;57358;51.094;6.760;2024-03-07T01:48:26;32.1;;;76.1;;
70014;SDS011;57358;51.094;6.760;2024-03-07T01:53:25;33.3;;;84.1;;
70014;SDS011;57358;51.094;6.760;2024-03-07T01:58:24;34.6;;;90.8;;
70014;SDS011;57358;51.094;6.760;2024-03-07T02:03:24;34.3;;;89.4;;
70014;SDS011;57358;51.094;6.760;2024-03-07T02:08:23;36.5;;;105.3;;
70014;SDS011;57358;51.094;6.760;2024-03-07T02:13:22;36.3;;;108.3;;
70014;SDS011;57358;51.094;6.760;2024-03-07T02:18:21;33.6;;;90;;
70014;SDS011;57358;51.094;6.760;2024-03-07T02:23:20;33.5;;;90.3;;
70014;SDS011;57358;51.094;6.760;2024-03-07T02:28:19;31.9;;;81.7;;
70014;SDS011;57358;51.094;6.760;2024-03-07T02:33:19;33.7;;;83.4;;
70014;SDS011;57358;51.094;6.760;2024-03-07T02:38:18;33.5;;;92.3;;
70014;SDS011;57358;51.094;6.760;2024-03-07T02:43:17;33.3;;;87.2;;
70014;SDS011;57358;51.094;6.760;2024-03-07T02:48:16;32.9;;;86.4;;
70014;SDS011;57358;51.094;6.760;2024-03-07T02:53:15;31.1;;;78.1;;
70014;SDS011;57358;51.094;6.760;2024-03-07T02:58:14;27.8;;;68;;
70014;SDS011;57358;51.094;6.760;2024-03-07T03:03:14;30.7;;;73.6;;
70014;SDS011;57358;51.094;6.760;2024-03-07T03:08:13;27.8;;;69.8;;
70014;SDS011;57358;51.094;6.760;2024-03-07T03:13:12;29.6;;;72.4;;
70014;SDS011;57358;51.094;6.760;2024-03-07T03:18:11;26.8;;;62.5;;
70014;SDS011;57358;51.094;6.760;2024-03-07T03:23:10;27.1;;;63.6;;
70014;SDS011;57358;51.094;6.760;2024-03-07T03:28:09;27.2;;;63.7;;
70014;SDS011;57358;51.094;6.760;2024-03-07T03:33:09;30.5;;;80.4;;
70014;SDS011;57358;51.094;6.760;2024-03-07T03:38:08;29;;;75.4;;
70014;SDS011;57358;51.094;6.760;2024-03-07T03:43:07;27.9;;;67.6;;
70014;SDS011;57358;51.094;6.760;2024-03-07T03:48:06;28.9;;;68.9;;
70014;SDS011;57358;51.094;6.760;2024-03-07T03:53:05;27.8;;;63.9;;
70014;SDS011;57358;51.094;6.760;2024-03-07T03:58:04;28.4;;;71.5;;
70014;SDS011;57358;51.094;6.760;2024-03-07T04:03:03;27.4;;;66.3;;
70014;SDS011;57358;51.094;6.760;2024-03-07T04:08:03;26.5;;;64.2;;
70014;SDS011;57358;51.094;6.760;2024-03-07T04:13:02;27.7;;;67;;
70014;SDS011;57358;51.094;6.760;2024-03-07T04:18:01;26.5;;;62.9;;
70014;SDS011;57358;51.094;6.760;2024-03-07T04:23:00;30.6;;;71.5;;
70014;SDS011;57358;51.094;6.760;2024-03-07T04:27:59;26.5;;;60.2;;
70014;SDS011;57358;51.094;6.760;2024-03-07T04:32:58;25.3;;;53;;
70014;SDS011;57358;51.094;6.760;2024-03-07T04:37:57;24.2;;;56.8;;
70014;SDS011;57358;51.094;6.760;2024-03-07T04:42:56;26.6;;;64.7;;
70014;SDS011;57358;51.094;6.760;2024-03-07T04:47:56;26.7;;;60.2;;
70014;SDS011;57358;51.094;6.760;2024-03-07T04:52:55;27.1;;;64.8;;
70014;SDS011;57358;51.094;6.760;2024-03-07T04:57:54;25.6;;;59.9;;
70014;SDS011;57358;51.094;6.760;2024-03-07T05:02:53;25.4;;;58.4;;
70014;SDS011;57358;51.094;6.760;2024-03-07T05:07:52;24.7;;;52.6;;
70014;SDS011;57358;51.094;6.760;2024-03-07T05:12:51;25.6;;;57.6;;
70014;SDS011;57358;51.094;6.760;2024-03-07T05:17:50;24.4;;;56.2;;
70014;SDS011;57358;51.094;6.760;2024-03-07T05:22:49;24;;;53.9;;
70014;SDS011;57358;51.094;6.760;2024-03-07T05:27:49;27.3;;;61.4;;
70014;SDS011;57358;51.094;6.760;2024-03-07T05:32:48;26.8;;;59.5;;
70014;SDS011;57358;51.094;6.760;2024-03-07T05:37:47;26.9;;;62;;
70014;SDS011;57358;51.094;6.760;2024-03-07T05:42:46;27.8;;;65.1;;
70014;SDS011;57358;51.094;6.760;2024-03-07T05:47:45;28.8;;;67.9;;
70014;SDS011;57358;51.094;6.760;2024-03-07T05:52:44;26.8;;;60.7;;
70014;SDS011;57358;51.094;6.760;2024-03-07T05:57:43;26.8;;;66.8;;
70014;SDS011;57358;51.094;6.760;2024-03-07T06:02:42;28.2;;;63.5;;
70014;SDS011;57358;51.094;6.760;2024-03-07T06:07:42;29.1;;;70;;
70014;SDS011;57358;51.094;6.760;2024-03-07T06:12:41;28.7;;;71;;
70014;SDS011;57358;51.094;6.760;2024-03-07T06:17:40;27.4;;;64.7;;
70014;SDS011;57358;51.094;6.760;2024-03-07T06:22:39;27.5;;;64.1;;
70014;SDS011;57358;51.094;6.760;2024-03-07T06:27:38;24.6;;;54;;
70014;SDS011;57358;51.094;6.760;2024-03-07T06:32:37;25.7;;;55.3;;
70014;SDS011;57358;51.094;6.760;2024-03-07T06:37:36;25.8;;;62.4;;
70014;SDS011;57358;51.094;6.760;2024-03-07T06:42:36;27.4;;;62.7;;
70014;SDS011;57358;51.094;6.760;2024-03-07T06:47:35;27.1;;;59.7;;
70014;SDS011;57358;51.094;6.760;2024-03-07T06:52:34;27.8;;;61.7;;
70014;SDS011;57358;51.094;6.760;2024-03-07T06:57:33;27.6;;;63.4;;
70014;SDS011;57358;51.094;6.760;2024-03-07T07:02:32;27.2;;;63.2;;
70014;SDS011;57358;51.094;6.760;2024-03-07T07:07:31;27.8;;;65.1;;
70014;SDS011;57358;51.094;6.760;2024-03-07T07:12:30;29.9;;;70.9;;
70014;SDS011;57358;51.094;6.760;2024-03-07T07:17:29;29.4;;;72;;
70014;SDS011;57358;51.094;6.760;2024-03-07T07:22:29;29.1;;;64;;
70014;SDS011;57358;51.094;6.760;2024-03-07T07:27:28;32.4;;;77.4;;
70014;SDS011;57358;51.094;6.760;2024-03-07T07:32:27;30.4;;;73;;
70014;SDS011;57358;51.094;6.760;2024-03-07T07:37:26;30.1;;;73.1;;
70014;SDS011;57358;51.094;6.760;2024-03-07T07:42:25;27.2;;;63.3;;
70014;SDS011;57358;51.094;6.760;2024-03-07T07:47:24;27.7;;;59.9;;
70014;SDS011;57358;51.094;6.760;2024-03-07T07:52:23;28.7;;;60.2;;
70014;SDS011;57358;51.094;6.760;2024-03-07T07:57:22;26.2;;;56.5;;
70014;SDS011;57358;51.094;6.760;2024-03-07T08:02:22;26.1;;;53;;
70014;SDS011;57358;51.094;6.760;2024-03-07T08:07:21;25.9;;;50.5;;
70014;SDS011;57358;51.094;6.760;2024-03-07T08:12:20;24.6;;;50.5;;
70014;SDS011;57358;51.094;6.760;2024-03-07T08:17:19;23.5;;;53;;
70014;SDS011;57358;51.094;6.760;2024-03-07T08:22:18;21.6;;;44.1;;
70014;SDS011;57358;51.094;6.760;2024-03-07T08:27:17;20;;;38.8;;
70014;SDS011;57358;51.094;6.760;2024-03-07T08:32:17;20.8;;;37.8;;
70014;SDS011;57358;51.094;6.760;2024-03-07T08:37:16;20.3;;;39.4;;
70014;SDS011;57358;51.094;6.760;2024-03-07T08:42:15;19.1;;;36.1;;
70014;SDS011;57358;51.094;6.760;2024-03-07T08:47:14;18.7;;;35.7;;
70014;SDS011;57358;51.094;6.760;2024-03-07T08:52:13;17.8;;;32;;
70014;SDS011;57358;51.094;6.760;2024-03-07T08:57:13;18.3;;;34;;
70014;SDS011;57358;51.094;6.760;2024-03-07T09:02:12;18.1;;;31.6;;
70014;SDS011;57358;51.094;6.760;2024-03-07T09:07:11;18.3;;;32.7;;
70014;SDS011;57358;51.094;6.760;2024-03-07T09:12:10;17.9;;;37.1;;
70014;SDS011;57358;51.094;6.760;2024-03-07T09:17:10;19.3;;;34.5;;
70014;SDS011;57358;51.094;6.760;2024-03-07T09:22:09;16.8;;;32.5;;
70014;SDS011;57358;51.094;6.760;2024-03-07T09:27:08;18;;;36.5;;
70014;SDS011;57358;51.094;6.760;2024-03-07T09:32:07;17.6;;;31.3;;
70014;SDS011;57358;51.094;6.760;2024-03-07T09:37:07;17.6;;;30.7;;
70014;SDS011;57358;51.094;6.760;2024-03-07T09:42:07;17.7;;;29.7;;
70014;SDS011;57358;51.094;6.760;2024-03-07T09:47:05;17.5;;;29.1;;
70014;SDS011;57358;51.094;6.760;2024-03-07T09:52:06;17.1;;;30;;
70014;SDS011;57358;51.094;6.760;2024-03-07T09:57:04;17.1;;;28;;
70014;SDS011;57358;51.094;6.760;2024-03-07T10:02:03;17.4;;;31.9;;
70014;SDS011;57358;51.094;6.760;2024-03-07T10:07:02;19;;;33;;
70014;SDS011;57358;51.094;6.760;2024-03-07T10:12:02;18.1;;;31.4;;
70014;SDS011;57358;51.094;6.760;2024-03-07T10:17:01;19;;;36;;
70014;SDS011;57358;51.094;6.760;2024-03-07T10:22:00;18.3;;;34.2;;
70014;SDS011;57358;51.094;6.760;2024-03-07T10:27:00;19.4;;;33.7;;
70014;SDS011;57358;51.094;6.760;2024-03-07T10:31:59;19;;;37.2;;
70014;SDS011;57358;51.094;6.760;2024-03-07T10:36:58;19.2;;;33.8;;
70014;SDS011;57358;51.094;6.760;2024-03-07T10:41:57;18.8;;;33.3;;
70014;SDS011;57358;51.094;6.760;2024-03-07T10:46:58;19.3;;;33;;
70014;SDS011;57358;51.094;6.760;2024-03-07T10:51:58;18.6;;;32.8;;
70014;SDS011;57358;51.094;6.760;2024-03-07T10:56:56;19.7;;;34.3;;
70014;SDS011;57358;51.094;6.760;2024-03-07T11:01:57;19.5;;;34.3;;
70014;SDS011;57358;51.094;6.760;2024-03-07T11:06:54;19.7;;;36.2;;
70014;SDS011;57358;51.094;6.760;2024-03-07T11:11:53;19.1;;;32.5;;
70014;SDS011;57358;51.094;6.760;2024-03-07T11:16:52;19.9;;;36.4;;
70014;SDS011;57358;51.094;6.760;2024-03-07T11:21:52;18.4;;;32.1;;
70014;SDS011;57358;51.094;6.760;2024-03-07T11:26:52;19;;;40.3;;
70014;SDS011;57358;51.094;6.760;2024-03-07T11:31:53;17.6;;;32.5;;
70014;SDS011;57358;51.094;6.760;2024-03-07T11:36:50;16.8;;;27.4;;
70014;SDS011;57358;51.094;6.760;2024-03-07T11:41:49;17.1;;;27.1;;
70014;SDS011;57358;51.094;6.760;2024-03-07T11:46:48;17.7;;;28.7;;
70014;SDS011;57358;51.094;6.760;2024-03-07T11:51:48;15.9;;;26.8;;
70014;SDS011;57358;51.094;6.760;2024-03-07T11:56:47;17.3;;;30.9;;
70014;SDS011;57358;51.094;6.760;2024-03-07T12:01:48;17.8;;;28.6;;
70014;SDS011;57358;51.094;6.760;2024-03-07T12:06:50;17.8;;;30.5;;
70014;SDS011;57358;51.094;6.760;2024-03-07T12:11:45;17.1;;;28;;
70014;SDS011;57358;51.094;6.760;2024-03-07T12:16:44;17;;;31;;
70014;SDS011;57358;51.094;6.760;2024-03-07T12:21:44;15.5;;;28.1;;
70014;SDS011;57358;51.094;6.760;2024-03-07T12:26:43;14.9;;;22.6;;
70014;SDS011;57358;51.094;6.760;2024-03-07T12:31:42;15.4;;;24.7;;
70014;SDS011;57358;51.094;6.760;2024-03-07T12:36:42;16.1;;;26.9;;
70014;SDS011;57358;51.094;6.760;2024-03-07T12:41:41;16;;;26.8;;
70014;SDS011;57358;51.094;6.760;2024-03-07T12:46:41;15.4;;;27.7;;
70014;SDS011;57358;51.094;6.760;2024-03-07T12:51:40;15.2;;;24;;
70014;SDS011;57358;51.094;6.760;2024-03-07T12:56:39;14.6;;;25.1;;
70014;SDS011;57358;51.094;6.760;2024-03-07T13:01:39;15.3;;;23.5;;
70014;SDS011;57358;51.094;6.760;2024-03-07T13:06:38;14.5;;;23.1;;
70014;SDS011;57358;51.094;6.760;2024-03-07T13:11:38;13.7;;;22.8;;
70014;SDS011;57358;51.094;6.760;2024-03-07T13:16:37;14.1;;;20.9;;
70014;SDS011;57358;51.094;6.760;2024-03-07T13:21:36;14.5;;;21.4;;
70014;SDS011;57358;51.094;6.760;2024-03-07T13:26:36;13.6;;;20.1;;
70014;SDS011;57358;51.094;6.760;2024-03-07T13:31:35;13.3;;;18.9;;
70014;SDS011;57358;51.094;6.760;2024-03-07T13:36:34;12.9;;;18.7;;
70014;SDS011;57358;51.094;6.760;2024-03-07T13:41:34;13.8;;;21.1;;
70014;SDS011;57358;51.094;6.760;2024-03-07T13:46:33;13.2;;;22.6;;
70014;SDS011;57358;51.094;6.760;2024-03-07T13:51:33;12.9;;;20.5;;
70014;SDS011;57358;51.094;6.760;2024-03-07T13:56:34;13.2;;;20.8;;
70014;SDS011;57358;51.094;6.760;2024-03-07T14:01:33;13.9;;;19.6;;
70014;SDS011;57358;51.094;6.760;2024-03-07T14:06:32;12.9;;;18.6;;
70014;SDS011;57358;51.094;6.760;2024-03-07T14:11:52;12.9;;;19;;
70014;SDS011;57358;51.094;6.760;2024-03-07T14:16:39;12.5;;;21.8;;
70014;SDS011;57358;51.094;6.760;2024-03-07T14:21:34;12.6;;;18;;
70014;SDS011;57358;51.094;6.760;2024-03-07T14:26:37;13.2;;;19.3;;
70014;SDS011;57358;51.094;6.760;2024-03-07T14:31:27;12.2;;;16.4;;
70014;SDS011;57358;51.094;6.760;2024-03-07T14:36:32;11.9;;;18.4;;
70014;SDS011;57358;51.094;6.760;2024-03-07T14:41:39;12.3;;;16;;
70014;SDS011;57358;51.094;6.760;2024-03-07T14:46:25;11.4;;;15.7;;
70014;SDS011;57358;51.094;6.760;2024-03-07T14:51:25;12.2;;;15.8;;
70014;SDS011;57358;51.094;6.760;2024-03-07T14:56:24;11.6;;;17.2;;
70014;SDS011;57358;51.094;6.760;2024-03-07T15:01:23;11.8;;;16.2;;
70014;SDS011;57358;51.094;6.760;2024-03-07T15:06:23;11.6;;;15.6;;
70014;SDS011;57358;51.094;6.760;2024-03-07T15:11:23;11.1;;;15.2;;
70014;SDS011;57358;51.094;6.760;2024-03-07T15:16:21;11.3;;;15.7;;
70014;SDS011;57358;51.094;6.760;2024-03-07T15:21:21;10.7;;;15.6;;
70014;SDS011;57358;51.094;6.760;2024-03-07T15:26:20;11;;;16.6;;
70014;SDS011;57358;51.094;6.760;2024-03-07T15:31:19;11.1;;;15.9;;
70014;SDS011;57358;51.094;6.760;2024-03-07T15:36:19;10.9;;;14.5;;
70014;SDS011;57358;51.094;6.760;2024-03-07T15:41:18;11.4;;;16.3;;
70014;SDS011;57358;51.094;6.760;2024-03-07T15:46:17;10.6;;;15.2;;
70014;SDS011;57358;51.094;6.760;2024-03-07T15:51:17;11.2;;;17.1;;
70014;SDS011;57358;51.094;6.760;2024-03-07T15:56:16;10.8;;;15.7;;
70014;SDS011;57358;51.094;6.760;2024-03-07T16:01:15;11.3;;;15.5;;
70014;SDS011;57358;51.094;6.760;2024-03-07T16:06:14;10.8;;;16.3;;
70014;SDS011;57358;51.094;6.760;2024-03-07T16:11:18;11.9;;;18;;
70014;SDS011;57358;51.094;6.760;2024-03-07T16:16:13;11.5;;;18.3;;
70014;SDS011;57358;51.094;6.760;2024-03-07T16:21:12;12.5;;;22.2;;
70014;SDS011;57358;51.094;6.760;2024-03-07T16:26:12;12.6;;;20.8;;
70014;SDS011;57358;51.094;6.760;2024-03-07T16:31:11;12.7;;;21.7;;
70014;SDS011;57358;51.094;6.760;2024-03-07T16:36:10;12.7;;;21.4;;
70014;SDS011;57358;51.094;6.760;2024-03-07T16:41:10;12.6;;;20.2;;
70014;SDS011;57358;51.094;6.760;2024-03-07T16:46:09;12.3;;;19.6;;
70014;SDS011;57358;51.094;6.760;2024-03-07T16:51:08;12.3;;;19.2;;
70014;SDS011;57358;51.094;6.760;2024-03-07T16:56:07;12.9;;;23.5;;
70014;SDS011;57358;51.094;6.760;2024-03-07T17:01:07;12;;;22.9;;
70014;SDS011;57358;51.094;6.760;2024-03-07T17:06:06;12.1;;;22.1;;
70014;SDS011;57358;51.094;6.760;2024-03-07T17:11:05;13.2;;;21.6;;
70014;SDS011;57358;51.094;6.760;2024-03-07T17:16:05;12.2;;;21.3;;
70014;SDS011;57358;51.094;6.760;2024-03-07T17:21:04;12.8;;;20.8;;
70014;SDS011;57358;51.094;6.760;2024-03-07T17:26:03;12.9;;;22.6;;
70014;SDS011;57358;51.094;6.760;2024-03-07T17:31:02;13.1;;;24.3;;
70014;SDS011;57358;51.094;6.760;2024-03-07T17:36:02;12.6;;;22;;
70014;SDS011;57358;51.094;6.760;2024-03-07T17:41:01;12.5;;;21.3;;
70014;SDS011;57358;51.094;6.760;2024-03-07T17:46:00;12.9;;;21.8;;
70014;SDS011;57358;51.094;6.760;2024-03-07T17:50:59;13.2;;;23;;
70014;SDS011;57358;51.094;6.760;2024-03-07T17:55:59;12.4;;;22;;
70014;SDS011;57358;51.094;6.760;2024-03-07T18:00:58;12.7;;;23.7;;
70014;SDS011;57358;51.094;6.760;2024-03-07T18:05:57;13.8;;;23.7;;
70014;SDS011;57358;51.094;6.760;2024-03-07T18:10:56;12.2;;;20.6;;
70014;SDS011;57358;51.094;6.760;2024-03-07T18:15:55;12.8;;;25.1;;
70014;SDS011;57358;51.094;6.760;2024-03-07T18:20:55;14.3;;;25;;
70014;SDS011;57358;51.094;6.760;2024-03-07T18:25:54;14.1;;;29;;
70014;SDS011;57358;51.094;6.760;2024-03-07T18:30:53;14.7;;;23.8;;
70014;SDS011;57358;51.094;6.760;2024-03-07T18:35:52;14.7;;;29.2;;
70014;SDS011;57358;51.094;6.760;2024-03-07T18:40:52;14.5;;;27.4;;
70014;SDS011;57358;51.094;6.760;2024-03-07T18:45:51;14.6;;;28.4;;
70014;SDS011;57358;51.094;6.760;2024-03-07T18:50:50;15;;;29.3;;
70014;SDS011;57358;51.094;6.760;2024-03-07T18:55:49;15.8;;;28.5;;
70014;SDS011;57358;51.094;6.760;2024-03-07T19:00:48;15.5;;;29.7;;
70014;SDS011;57358;51.094;6.760;2024-03-07T19:05:48;16.6;;;35.1;;
70014;SDS011;57358;51.094;6.760;2024-03-07T19:10:47;17.3;;;33;;
70014;SDS011;57358;51.094;6.760;2024-03-07T19:15:47;15.7;;;28.6;;
70014;SDS011;57358;51.094;6.760;2024-03-07T19:20:46;15.4;;;29.9;;
70014;SDS011;57358;51.094;6.760;2024-03-07T19:25:45;15.9;;;28.5;;
70014;SDS011;57358;51.094;6.760;2024-03-07T19:30:44;15;;;28.5;;
70014;SDS011;57358;51.094;6.760;2024-03-07T19:35:43;15.4;;;30.2;;
70014;SDS011;57358;51.094;6.760;2024-03-07T19:40:42;15.2;;;30.3;;
70014;SDS011;57358;51.094;6.760;2024-03-07T19:45:42;15.9;;;28.3;;
70014;SDS011;57358;51.094;6.760;2024-03-07T19:50:41;14.7;;;30.4;;
70014;SDS011;57358;51.094;6.760;2024-03-07T19:55:40;16.1;;;28.4;;
70014;SDS011;57358;51.094;6.760;2024-03-07T20:00:39;16;;;32.1;;
70014;SDS011;57358;51.094;6.760;2024-03-07T20:05:38;17;;;32.8;;
70014;SDS011;57358;51.094;6.760;2024-03-07T20:10:37;14.8;;;27.8;;
70014;SDS011;57358;51.094;6.760;2024-03-07T20:15:37;15.1;;;28;;
70014;SDS011;57358;51.094;6.760;2024-03-07T20:20:36;16.2;;;28.7;;
70014;SDS011;57358;51.094;6.760;2024-03-07T20:25:35;15.2;;;28.1;;
70014;SDS011;57358;51.094;6.760;2024-03-07T20:30:34;15.4;;;27;;
70014;SDS011;57358;51.094;6.760;2024-03-07T20:35:33;15.6;;;28.8;;
70014;SDS011;57358;51.094;6.760;2024-03-07T20:40:33;14.7;;;26.3;;
70014;SDS011;57358;51.094;6.760;2024-03-07T20:45:32;15.9;;;29.4;;
70014;SDS011;57358;51.094;6.760;2024-03-07T20:50:31;15.8;;;30.2;;
70014;SDS011;57358;51.094;6.760;2024-03-07T20:55:30;15.8;;;31.1;;
70014;SDS011;57358;51.094;6.760;2024-03-07T21:00:29;15.9;;;30.1;;
70014;SDS011;57358;51.094;6.760;2024-03-07T21:05:29;16.1;;;30.1;;
70014;SDS011;57358;51.094;6.760;2024-03-07T21:10:28;16.7;;;33;;
70014;SDS011;57358;51.094;6.760;2024-03-07T21:15:27;16.6;;;27.2;;
70014;SDS011;57358;51.094;6.760;2024-03-07T21:20:26;16.1;;;28.3;;
70014;SDS011;57358;51.094;6.760;2024-03-07T21:25:25;15.7;;;26.7;;
70014;SDS011;57358;51.094;6.760;2024-03-07T21:30:24;16.9;;;30;;
70014;SDS011;57358;51.094;6.760;2024-03-07T21:35:23;16.9;;;29.2;;
70014;SDS011;57358;51.094;6.760;2024-03-07T21:40:23;17.5;;;32.7;;
70014;SDS011;57358;51.094;6.760;2024-03-07T21:45:22;16.6;;;26.7;;
70014;SDS011;57358;51.094;6.760;2024-03-07T21:50:21;16.7;;;27.4;;
70014;SDS011;57358;51.094;6.760;2024-03-07T21:55:20;16;;;29.4;;
70014;SDS011;57358;51.094;6.760;2024-03-07T22:00:19;16.3;;;29.8;;
70014;SDS011;57358;51.094;6.760;2024-03-07T22:05:18;17.4;;;29;;
70014;SDS011;57358;51.094;6.760;2024-03-07T22:10:18;18.6;;;31.9;;
70014;SDS011;57358;51.094;6.760;2024-03-07T22:15:17;16.7;;;26.8;;
70014;SDS011;57358;51.094;6.760;2024-03-07T22:20:16;17.1;;;28.6;;
70014;SDS011;57358;51.094;6.760;2024-03-07T22:25:15;17.3;;;29.5;;
70014;SDS011;57358;51.094;6.760;2024-03-07T22:30:14;16.7;;;32.1;;
70014;SDS011;57358;51.094;6.760;2024-03-07T22:35:13;17.7;;;27.4;;
70014;SDS011;57358;51.094;6.760;2024-03-07T22:40:13;16.5;;;29.6;;
70014;SDS011;57358;51.094;6.760;2024-03-07T22:45:12;18;;;29.8;;
70014;SDS011;57358;51.094;6.760;2024-03-07T22:50:11;18.4;;;30.3;;
70014;SDS011;57358;51.094;6.760;2024-03-07T22:55:10;17.8;;;28.7;;
70014;SDS011;57358;51.094;6.760;2024-03-07T23:00:09;18;;;31.3;;
70014;SDS011;57358;51.094;6.760;2024-03-07T23:05:08;18.7;;;30.1;;
70014;SDS011;57358;51.094;6.760;2024-03-07T23:10:08;17.8;;;30.6;;
70014;SDS011;57358;51.094;6.760;2024-03-07T23:15:07;17.7;;;30.8;;
70014;SDS011;57358;51.094;6.760;2024-03-07T23:20:06;16.7;;;30.8;;
70014;SDS011;57358;51.094;6.760;2024-03-07T23:25:05;17.4;;;28.6;;
70014;SDS011;57358;51.094;6.760;2024-03-07T23:30:04;17.4;;;29.4;;
70014;SDS011;57358;51.094;6.760;2024-03-07T23:35:03;17.7;;;33.4;;
70014;SDS011;57358;51.094;6.760;2024-03-07T23:40:02;16.6;;;30.1;;
70014;SDS011;57358;51.094;6.760;2024-03-07T23:45:01;17.4;;;31.5;;
70014;SDS011;57358;51.094;6.760;2024-03-07T23:50:01;17.2;;;30.8;;
70014;SDS011;57358;51.094;6.760;2024-03-07T23:55:00;18.5;;;35;;
70014;SDS011;57358;51.094;6.760;2024-03-07T23:59:59;18.5;;;31.6;;
